sensor_id;sensor_type;location;lat;lon;timestamp;temperature;humidity
18177;DHT22;9213;50.858;3.964;2023-05-23T00:01:49;17.80;58.80
18177;DHT22;9213;50.858;3.964;2023-05-23T00:04:19;17.80;59.00
18177;DHT22;9213;50.858;3.964;2023-05-23T00:06:46;17.80;59.00
18177;DHT22;9213;50.858;3.964;2023-05-23T00:09:15;17.70;59.00
18177;DHT22;9213;50.858;3.964;2023-05-23T00:11:42;17.70;59.10
18177;DHT22;9213;50.858;3.964;2023-05-23T00:14:10;17.70;59.10
18177;DHT22;9213;50.858;3.964;2023-05-23T00:16:39;17.70;59.30
18177;DHT22;9213;50.858;3.964;2023-05-23T00:19:08;17.70;59.30
18177;DHT22;9213;50.858;3.964;2023-05-23T00:21:36;17.70;59.40
18177;DHT22;9213;50.858;3.964;2023-05-23T00:24:03;17.70;59.30
18177;DHT22;9213;50.858;3.964;2023-05-23T00:26:30;17.70;59.40
18177;DHT22;9213;50.858;3.964;2023-05-23T00:28:57;17.70;59.50
18177;DHT22;9213;50.858;3.964;2023-05-23T00:31:24;17.70;59.50
18177;DHT22;9213;50.858;3.964;2023-05-23T00:33:51;17.70;59.60
18177;DHT22;9213;50.858;3.964;2023-05-23T00:36:19;17.70;59.60
18177;DHT22;9213;50.858;3.964;2023-05-23T00:38:48;17.70;59.70
18177;DHT22;9213;50.858;3.964;2023-05-23T00:41:15;17.70;59.70
18177;DHT22;9213;50.858;3.964;2023-05-23T00:43:44;17.80;59.80
18177;DHT22;9213;50.858;3.964;2023-05-23T00:46:11;17.70;59.70
18177;DHT22;9213;50.858;3.964;2023-05-23T00:48:38;17.80;59.70
18177;DHT22;9213;50.858;3.964;2023-05-23T00:51:05;17.70;59.70
18177;DHT22;9213;50.858;3.964;2023-05-23T00:53:34;17.80;59.80
18177;DHT22;9213;50.858;3.964;2023-05-23T00:56:01;17.80;59.70
18177;DHT22;9213;50.858;3.964;2023-05-23T00:58:29;17.80;59.70
18177;DHT22;9213;50.858;3.964;2023-05-23T01:00:56;17.80;59.80
18177;DHT22;9213;50.858;3.964;2023-05-23T01:03:24;17.80;59.90
18177;DHT22;9213;50.858;3.964;2023-05-23T01:05:53;17.80;59.90
18177;DHT22;9213;50.858;3.964;2023-05-23T01:08:20;17.80;59.80
18177;DHT22;9213;50.858;3.964;2023-05-23T01:10:49;17.80;59.80
18177;DHT22;9213;50.858;3.964;2023-05-23T01:13:21;17.80;60.00
18177;DHT22;9213;50.858;3.964;2023-05-23T01:15:54;17.80;60.00
18177;DHT22;9213;50.858;3.964;2023-05-23T01:18:26;17.80;59.90
18177;DHT22;9213;50.858;3.964;2023-05-23T01:20:58;17.80;60.00
18177;DHT22;9213;50.858;3.964;2023-05-23T01:24:02;17.80;60.70
18177;DHT22;9213;50.858;3.964;2023-05-23T01:26:45;17.90;59.80
18177;DHT22;9213;50.858;3.964;2023-05-23T01:29:23;17.90;59.80
18177;DHT22;9213;50.858;3.964;2023-05-23T01:31:52;17.80;59.70
18177;DHT22;9213;50.858;3.964;2023-05-23T01:34:20;17.80;59.80
18177;DHT22;9213;50.858;3.964;2023-05-23T01:36:49;17.80;59.80
18177;DHT22;9213;50.858;3.964;2023-05-23T01:39:19;17.80;59.80
18177;DHT22;9213;50.858;3.964;2023-05-23T01:41:46;17.80;59.80
18177;DHT22;9213;50.858;3.964;2023-05-23T01:44:14;17.80;59.70
18177;DHT22;9213;50.858;3.964;2023-05-23T01:46:43;17.80;59.80
18177;DHT22;9213;50.858;3.964;2023-05-23T01:49:13;17.80;59.90
18177;DHT22;9213;50.858;3.964;2023-05-23T01:51:42;17.80;59.80
18177;DHT22;9213;50.858;3.964;2023-05-23T01:54:09;17.80;59.80
18177;DHT22;9213;50.858;3.964;2023-05-23T01:56:37;17.80;59.80
18177;DHT22;9213;50.858;3.964;2023-05-23T01:59:05;17.80;59.80
18177;DHT22;9213;50.858;3.964;2023-05-23T02:01:32;17.80;59.80
18177;DHT22;9213;50.858;3.964;2023-05-23T02:04:01;17.80;59.70
18177;DHT22;9213;50.858;3.964;2023-05-23T02:06:28;17.80;59.70
18177;DHT22;9213;50.858;3.964;2023-05-23T02:08:56;17.80;59.70
18177;DHT22;9213;50.858;3.964;2023-05-23T02:11:23;17.80;59.70
18177;DHT22;9213;50.858;3.964;2023-05-23T02:13:51;17.80;59.80
18177;DHT22;9213;50.858;3.964;2023-05-23T02:16:18;17.80;60.60
18177;DHT22;9213;50.858;3.964;2023-05-23T02:18:45;17.80;59.80
18177;DHT22;9213;50.858;3.964;2023-05-23T02:21:13;17.80;59.80
18177;DHT22;9213;50.858;3.964;2023-05-23T02:23:40;17.80;59.70
18177;DHT22;9213;50.858;3.964;2023-05-23T02:26:07;17.80;59.80
18177;DHT22;9213;50.858;3.964;2023-05-23T02:28:34;17.80;59.80
18177;DHT22;9213;50.858;3.964;2023-05-23T02:31:01;17.80;59.80
18177;DHT22;9213;50.858;3.964;2023-05-23T02:33:28;17.80;59.90
18177;DHT22;9213;50.858;3.964;2023-05-23T02:35:55;17.80;59.80
18177;DHT22;9213;50.858;3.964;2023-05-23T02:38:23;17.80;59.90
18177;DHT22;9213;50.858;3.964;2023-05-23T02:40:51;17.80;59.90
18177;DHT22;9213;50.858;3.964;2023-05-23T02:43:18;17.70;59.90
18177;DHT22;9213;50.858;3.964;2023-05-23T02:45:45;17.80;59.90
18177;DHT22;9213;50.858;3.964;2023-05-23T02:48:12;17.80;59.80
18177;DHT22;9213;50.858;3.964;2023-05-23T02:50:39;17.80;59.80
18177;DHT22;9213;50.858;3.964;2023-05-23T02:53:06;17.80;59.60
18177;DHT22;9213;50.858;3.964;2023-05-23T02:55:34;17.80;59.50
18177;DHT22;9213;50.858;3.964;2023-05-23T02:58:02;17.80;59.50
18177;DHT22;9213;50.858;3.964;2023-05-23T03:00:30;17.80;59.50
18177;DHT22;9213;50.858;3.964;2023-05-23T03:02:58;17.80;59.50
18177;DHT22;9213;50.858;3.964;2023-05-23T03:05:25;17.80;59.40
18177;DHT22;9213;50.858;3.964;2023-05-23T03:07:51;17.70;59.30
18177;DHT22;9213;50.858;3.964;2023-05-23T03:10:19;17.70;59.30
18177;DHT22;9213;50.858;3.964;2023-05-23T03:12:47;17.70;59.30
18177;DHT22;9213;50.858;3.964;2023-05-23T03:15:14;17.70;59.30
18177;DHT22;9213;50.858;3.964;2023-05-23T03:17:41;17.70;59.30
18177;DHT22;9213;50.858;3.964;2023-05-23T03:20:09;17.70;59.30
18177;DHT22;9213;50.858;3.964;2023-05-23T03:22:36;17.70;60.00
18177;DHT22;9213;50.858;3.964;2023-05-23T03:25:04;17.70;59.20
18177;DHT22;9213;50.858;3.964;2023-05-23T03:27:31;17.70;59.30
18177;DHT22;9213;50.858;3.964;2023-05-23T03:29:59;17.60;59.20
18177;DHT22;9213;50.858;3.964;2023-05-23T03:32:26;17.60;59.30
18177;DHT22;9213;50.858;3.964;2023-05-23T03:34:53;17.60;59.30
18177;DHT22;9213;50.858;3.964;2023-05-23T03:37:20;17.50;59.40
18177;DHT22;9213;50.858;3.964;2023-05-23T03:39:47;17.50;59.60
18177;DHT22;9213;50.858;3.964;2023-05-23T03:42:14;17.50;59.80
18177;DHT22;9213;50.858;3.964;2023-05-23T03:44:41;17.50;59.80
18177;DHT22;9213;50.858;3.964;2023-05-23T03:47:09;17.50;59.90
18177;DHT22;9213;50.858;3.964;2023-05-23T03:49:36;17.50;60.00
18177;DHT22;9213;50.858;3.964;2023-05-23T03:52:03;17.40;59.90
18177;DHT22;9213;50.858;3.964;2023-05-23T03:54:30;17.40;59.90
18177;DHT22;9213;50.858;3.964;2023-05-23T03:56:57;17.40;59.90
18177;DHT22;9213;50.858;3.964;2023-05-23T03:59:24;17.40;59.90
18177;DHT22;9213;50.858;3.964;2023-05-23T04:01:51;17.50;60.00
18177;DHT22;9213;50.858;3.964;2023-05-23T04:04:19;17.40;59.90
18177;DHT22;9213;50.858;3.964;2023-05-23T04:06:46;17.50;60.10
18177;DHT22;9213;50.858;3.964;2023-05-23T04:09:13;17.50;60.00
18177;DHT22;9213;50.858;3.964;2023-05-23T04:11:40;17.50;60.00
18177;DHT22;9213;50.858;3.964;2023-05-23T04:14:07;17.50;60.10
18177;DHT22;9213;50.858;3.964;2023-05-23T04:16:36;17.50;59.90
18177;DHT22;9213;50.858;3.964;2023-05-23T04:19:06;17.60;59.80
18177;DHT22;9213;50.858;3.964;2023-05-23T04:21:34;17.60;59.80
18177;DHT22;9213;50.858;3.964;2023-05-23T04:24:01;17.60;59.70
18177;DHT22;9213;50.858;3.964;2023-05-23T04:26:28;17.60;59.60
18177;DHT22;9213;50.858;3.964;2023-05-23T04:28:55;17.60;59.60
18177;DHT22;9213;50.858;3.964;2023-05-23T04:31:23;17.70;59.60
18177;DHT22;9213;50.858;3.964;2023-05-23T04:33:50;17.70;59.60
18177;DHT22;9213;50.858;3.964;2023-05-23T04:36:17;17.70;59.50
18177;DHT22;9213;50.858;3.964;2023-05-23T04:38:46;17.70;59.40
18177;DHT22;9213;50.858;3.964;2023-05-23T04:41:13;17.70;59.40
18177;DHT22;9213;50.858;3.964;2023-05-23T04:43:40;17.70;59.40
18177;DHT22;9213;50.858;3.964;2023-05-23T04:46:08;17.70;59.50
18177;DHT22;9213;50.858;3.964;2023-05-23T04:48:35;17.70;59.40
18177;DHT22;9213;50.858;3.964;2023-05-23T04:51:03;17.70;59.40
18177;DHT22;9213;50.858;3.964;2023-05-23T04:53:32;17.70;59.40
18177;DHT22;9213;50.858;3.964;2023-05-23T04:56:02;17.70;59.20
18177;DHT22;9213;50.858;3.964;2023-05-23T04:58:29;17.70;59.10
18177;DHT22;9213;50.858;3.964;2023-05-23T05:00:56;17.70;59.00
18177;DHT22;9213;50.858;3.964;2023-05-23T05:03:23;17.70;58.80
18177;DHT22;9213;50.858;3.964;2023-05-23T05:05:50;17.70;58.80
18177;DHT22;9213;50.858;3.964;2023-05-23T05:08:17;17.60;58.60
18177;DHT22;9213;50.858;3.964;2023-05-23T05:10:45;17.60;58.50
18177;DHT22;9213;50.858;3.964;2023-05-23T05:13:13;17.60;58.30
18177;DHT22;9213;50.858;3.964;2023-05-23T05:15:40;17.60;58.30
18177;DHT22;9213;50.858;3.964;2023-05-23T05:18:07;17.60;58.10
18177;DHT22;9213;50.858;3.964;2023-05-23T05:20:34;17.70;58.10
18177;DHT22;9213;50.858;3.964;2023-05-23T05:23:01;17.70;58.00
18177;DHT22;9213;50.858;3.964;2023-05-23T05:25:28;17.70;57.80
18177;DHT22;9213;50.858;3.964;2023-05-23T05:27:57;17.70;57.80
18177;DHT22;9213;50.858;3.964;2023-05-23T05:30:25;17.60;57.60
18177;DHT22;9213;50.858;3.964;2023-05-23T05:32:52;17.70;58.40
18177;DHT22;9213;50.858;3.964;2023-05-23T05:35:19;17.60;57.60
18177;DHT22;9213;50.858;3.964;2023-05-23T05:37:46;17.60;57.50
18177;DHT22;9213;50.858;3.964;2023-05-23T05:40:13;17.70;57.50
18177;DHT22;9213;50.858;3.964;2023-05-23T05:42:39;17.60;57.30
18177;DHT22;9213;50.858;3.964;2023-05-23T05:45:07;17.60;57.30
18177;DHT22;9213;50.858;3.964;2023-05-23T05:47:35;17.60;57.30
18177;DHT22;9213;50.858;3.964;2023-05-23T05:50:03;17.60;57.40
18177;DHT22;9213;50.858;3.964;2023-05-23T05:52:31;17.60;57.30
18177;DHT22;9213;50.858;3.964;2023-05-23T05:54:59;17.60;57.30
18177;DHT22;9213;50.858;3.964;2023-05-23T05:57:26;17.70;57.20
18177;DHT22;9213;50.858;3.964;2023-05-23T05:59:53;17.70;57.20
18177;DHT22;9213;50.858;3.964;2023-05-23T06:02:19;17.70;57.30
18177;DHT22;9213;50.858;3.964;2023-05-23T06:04:48;17.70;57.10
18177;DHT22;9213;50.858;3.964;2023-05-23T06:07:15;17.70;56.90
18177;DHT22;9213;50.858;3.964;2023-05-23T06:09:42;17.70;56.80
18177;DHT22;9213;50.858;3.964;2023-05-23T06:12:09;17.70;56.70
18177;DHT22;9213;50.858;3.964;2023-05-23T06:14:36;17.70;56.50
18177;DHT22;9213;50.858;3.964;2023-05-23T06:17:03;17.70;56.20
18177;DHT22;9213;50.858;3.964;2023-05-23T06:19:30;17.70;56.00
18177;DHT22;9213;50.858;3.964;2023-05-23T06:21:58;17.70;55.70
18177;DHT22;9213;50.858;3.964;2023-05-23T06:24:25;17.70;55.50
18177;DHT22;9213;50.858;3.964;2023-05-23T06:26:52;17.70;55.30
18177;DHT22;9213;50.858;3.964;2023-05-23T06:29:19;17.70;55.10
18177;DHT22;9213;50.858;3.964;2023-05-23T06:31:46;17.70;54.80
18177;DHT22;9213;50.858;3.964;2023-05-23T06:34:13;17.70;54.60
18177;DHT22;9213;50.858;3.964;2023-05-23T06:36:40;17.70;54.20
18177;DHT22;9213;50.858;3.964;2023-05-23T06:39:08;17.70;54.00
18177;DHT22;9213;50.858;3.964;2023-05-23T06:41:35;17.80;53.60
18177;DHT22;9213;50.858;3.964;2023-05-23T06:44:02;17.90;53.70
18177;DHT22;9213;50.858;3.964;2023-05-23T06:46:29;17.90;53.00
18177;DHT22;9213;50.858;3.964;2023-05-23T06:48:56;18.00;52.40
18177;DHT22;9213;50.858;3.964;2023-05-23T06:51:23;18.00;52.20
18177;DHT22;9213;50.858;3.964;2023-05-23T06:53:50;18.10;51.70
18177;DHT22;9213;50.858;3.964;2023-05-23T06:56:18;18.10;51.40
18177;DHT22;9213;50.858;3.964;2023-05-23T06:58:46;18.10;50.90
18177;DHT22;9213;50.858;3.964;2023-05-23T07:01:13;18.10;50.30
18177;DHT22;9213;50.858;3.964;2023-05-23T07:03:40;18.10;50.00
18177;DHT22;9213;50.858;3.964;2023-05-23T07:06:10;18.10;50.20
18177;DHT22;9213;50.858;3.964;2023-05-23T07:08:37;18.10;49.90
18177;DHT22;9213;50.858;3.964;2023-05-23T07:11:05;18.10;50.00
18177;DHT22;9213;50.858;3.964;2023-05-23T07:13:33;18.10;49.80
18177;DHT22;9213;50.858;3.964;2023-05-23T07:16:00;18.10;49.70
18177;DHT22;9213;50.858;3.964;2023-05-23T07:18:27;18.20;49.40
18177;DHT22;9213;50.858;3.964;2023-05-23T07:20:54;18.20;49.50
18177;DHT22;9213;50.858;3.964;2023-05-23T07:23:22;18.30;49.20
18177;DHT22;9213;50.858;3.964;2023-05-23T07:25:50;18.50;49.00
18177;DHT22;9213;50.858;3.964;2023-05-23T07:28:19;18.60;48.80
18177;DHT22;9213;50.858;3.964;2023-05-23T07:30:47;18.80;48.20
18177;DHT22;9213;50.858;3.964;2023-05-23T07:33:14;19.00;47.90
18177;DHT22;9213;50.858;3.964;2023-05-23T07:35:42;19.20;47.10
18177;DHT22;9213;50.858;3.964;2023-05-23T07:38:09;19.40;46.00
18177;DHT22;9213;50.858;3.964;2023-05-23T07:40:36;19.40;45.10
18177;DHT22;9213;50.858;3.964;2023-05-23T07:43:04;19.50;44.90
18177;DHT22;9213;50.858;3.964;2023-05-23T07:45:31;19.60;44.60
18177;DHT22;9213;50.858;3.964;2023-05-23T07:48:00;19.60;44.00
18177;DHT22;9213;50.858;3.964;2023-05-23T07:50:26;19.60;43.70
18177;DHT22;9213;50.858;3.964;2023-05-23T07:52:53;19.70;43.60
18177;DHT22;9213;50.858;3.964;2023-05-23T07:55:21;19.70;43.90
18177;DHT22;9213;50.858;3.964;2023-05-23T07:57:48;19.90;43.70
18177;DHT22;9213;50.858;3.964;2023-05-23T08:00:17;20.10;43.00
18177;DHT22;9213;50.858;3.964;2023-05-23T08:02:44;20.20;42.70
18177;DHT22;9213;50.858;3.964;2023-05-23T08:05:14;20.20;42.40
18177;DHT22;9213;50.858;3.964;2023-05-23T08:07:41;20.10;43.30
18177;DHT22;9213;50.858;3.964;2023-05-23T08:10:08;20.00;42.50
18177;DHT22;9213;50.858;3.964;2023-05-23T08:12:35;20.00;42.50
18177;DHT22;9213;50.858;3.964;2023-05-23T08:15:02;19.90;42.30
18177;DHT22;9213;50.858;3.964;2023-05-23T08:17:29;19.80;42.60
18177;DHT22;9213;50.858;3.964;2023-05-23T08:19:56;19.70;42.90
18177;DHT22;9213;50.858;3.964;2023-05-23T08:22:26;19.60;43.20
18177;DHT22;9213;50.858;3.964;2023-05-23T08:24:53;19.60;43.60
18177;DHT22;9213;50.858;3.964;2023-05-23T08:27:20;19.40;43.70
18177;DHT22;9213;50.858;3.964;2023-05-23T08:29:47;19.30;44.20
18177;DHT22;9213;50.858;3.964;2023-05-23T08:32:14;19.20;44.70
18177;DHT22;9213;50.858;3.964;2023-05-23T08:34:41;19.20;45.00
18177;DHT22;9213;50.858;3.964;2023-05-23T08:37:08;19.10;44.90
18177;DHT22;9213;50.858;3.964;2023-05-23T08:39:37;19.00;45.20
18177;DHT22;9213;50.858;3.964;2023-05-23T08:42:04;19.00;45.60
18177;DHT22;9213;50.858;3.964;2023-05-23T08:44:31;18.90;46.10
18177;DHT22;9213;50.858;3.964;2023-05-23T08:47:03;18.90;46.30
18177;DHT22;9213;50.858;3.964;2023-05-23T08:49:31;19.00;46.30
18177;DHT22;9213;50.858;3.964;2023-05-23T08:52:01;19.00;46.30
18177;DHT22;9213;50.858;3.964;2023-05-23T08:54:28;19.00;46.60
18177;DHT22;9213;50.858;3.964;2023-05-23T08:56:56;19.00;46.40
18177;DHT22;9213;50.858;3.964;2023-05-23T08:59:24;19.00;46.30
18177;DHT22;9213;50.858;3.964;2023-05-23T09:01:53;19.00;46.40
18177;DHT22;9213;50.858;3.964;2023-05-23T09:04:21;19.00;46.60
18177;DHT22;9213;50.858;3.964;2023-05-23T09:06:48;19.00;46.90
18177;DHT22;9213;50.858;3.964;2023-05-23T09:09:15;18.90;47.30
18177;DHT22;9213;50.858;3.964;2023-05-23T09:11:42;18.90;47.30
18177;DHT22;9213;50.858;3.964;2023-05-23T09:14:12;19.00;47.40
18177;DHT22;9213;50.858;3.964;2023-05-23T09:16:45;19.00;47.40
18177;DHT22;9213;50.858;3.964;2023-05-23T09:19:13;19.00;47.50
18177;DHT22;9213;50.858;3.964;2023-05-23T09:21:43;19.00;47.50
18177;DHT22;9213;50.858;3.964;2023-05-23T09:24:10;19.00;47.70
18177;DHT22;9213;50.858;3.964;2023-05-23T09:26:37;19.10;47.60
18177;DHT22;9213;50.858;3.964;2023-05-23T09:29:05;19.10;47.50
18177;DHT22;9213;50.858;3.964;2023-05-23T09:31:33;19.10;47.30
18177;DHT22;9213;50.858;3.964;2023-05-23T09:34:00;19.20;47.30
18177;DHT22;9213;50.858;3.964;2023-05-23T09:36:28;19.20;47.60
18177;DHT22;9213;50.858;3.964;2023-05-23T09:39:01;19.30;47.30
18177;DHT22;9213;50.858;3.964;2023-05-23T09:41:30;19.60;46.60
18177;DHT22;9213;50.858;3.964;2023-05-23T09:43:59;19.70;45.70
18177;DHT22;9213;50.858;3.964;2023-05-23T09:46:35;19.80;45.60
18177;DHT22;9213;50.858;3.964;2023-05-23T09:49:14;19.90;45.40
18177;DHT22;9213;50.858;3.964;2023-05-23T09:51:42;20.00;45.40
18177;DHT22;9213;50.858;3.964;2023-05-23T09:54:09;20.10;44.90
18177;DHT22;9213;50.858;3.964;2023-05-23T09:56:39;20.20;44.20
18177;DHT22;9213;50.858;3.964;2023-05-23T09:59:08;20.30;44.20
18177;DHT22;9213;50.858;3.964;2023-05-23T10:01:41;20.30;43.50
18177;DHT22;9213;50.858;3.964;2023-05-23T10:04:09;20.30;43.20
18177;DHT22;9213;50.858;3.964;2023-05-23T10:06:40;20.40;43.20
18177;DHT22;9213;50.858;3.964;2023-05-23T10:09:12;20.50;43.50
18177;DHT22;9213;50.858;3.964;2023-05-23T10:12:15;20.70;42.40
18177;DHT22;9213;50.858;3.964;2023-05-23T10:14:51;20.90;42.10
18177;DHT22;9213;50.858;3.964;2023-05-23T10:17:28;21.00;41.70
18177;DHT22;9213;50.858;3.964;2023-05-23T10:19:59;21.10;40.10
18177;DHT22;9213;50.858;3.964;2023-05-23T10:22:27;21.00;40.10
18177;DHT22;9213;50.858;3.964;2023-05-23T10:24:54;21.00;40.00
18177;DHT22;9213;50.858;3.964;2023-05-23T10:27:21;21.00;40.80
18177;DHT22;9213;50.858;3.964;2023-05-23T10:29:48;21.20;40.60
18177;DHT22;9213;50.858;3.964;2023-05-23T10:32:16;21.50;40.40
18177;DHT22;9213;50.858;3.964;2023-05-23T10:34:53;21.70;39.40
18177;DHT22;9213;50.858;3.964;2023-05-23T10:37:28;22.00;39.10
18177;DHT22;9213;50.858;3.964;2023-05-23T10:40:00;22.20;39.40
18177;DHT22;9213;50.858;3.964;2023-05-23T10:42:39;22.50;38.80
18177;DHT22;9213;50.858;3.964;2023-05-23T10:45:15;22.90;37.40
18177;DHT22;9213;50.858;3.964;2023-05-23T10:47:42;23.10;36.10
18177;DHT22;9213;50.858;3.964;2023-05-23T10:50:13;23.00;36.10
18177;DHT22;9213;50.858;3.964;2023-05-23T10:52:41;22.90;35.90
18177;DHT22;9213;50.858;3.964;2023-05-23T10:55:16;22.70;35.90
18177;DHT22;9213;50.858;3.964;2023-05-23T10:58:07;22.60;35.90
18177;DHT22;9213;50.858;3.964;2023-05-23T11:00:35;22.40;36.80
18177;DHT22;9213;50.858;3.964;2023-05-23T11:03:04;22.30;36.90
18177;DHT22;9213;50.858;3.964;2023-05-23T11:05:34;22.20;36.50
18177;DHT22;9213;50.858;3.964;2023-05-23T11:08:09;22.20;36.30
18177;DHT22;9213;50.858;3.964;2023-05-23T11:10:57;22.20;35.90
18177;DHT22;9213;50.858;3.964;2023-05-23T11:13:52;22.30;36.40
18177;DHT22;9213;50.858;3.964;2023-05-23T11:16:38;22.20;35.40
18177;DHT22;9213;50.858;3.964;2023-05-23T11:19:22;22.40;35.70
18177;DHT22;9213;50.858;3.964;2023-05-23T11:21:54;22.40;35.70
18177;DHT22;9213;50.858;3.964;2023-05-23T11:24:21;22.40;35.20
18177;DHT22;9213;50.858;3.964;2023-05-23T11:26:52;22.50;35.50
18177;DHT22;9213;50.858;3.964;2023-05-23T11:29:21;22.60;35.30
18177;DHT22;9213;50.858;3.964;2023-05-23T11:31:49;22.60;35.20
18177;DHT22;9213;50.858;3.964;2023-05-23T11:34:16;22.60;34.90
18177;DHT22;9213;50.858;3.964;2023-05-23T11:36:44;22.60;35.00
18177;DHT22;9213;50.858;3.964;2023-05-23T11:39:12;22.60;34.70
18177;DHT22;9213;50.858;3.964;2023-05-23T11:41:40;22.60;34.90
18177;DHT22;9213;50.858;3.964;2023-05-23T11:44:11;22.70;34.80
18177;DHT22;9213;50.858;3.964;2023-05-23T11:46:38;22.90;34.00
18177;DHT22;9213;50.858;3.964;2023-05-23T11:49:10;23.10;34.50
18177;DHT22;9213;50.858;3.964;2023-05-23T11:51:37;23.40;34.70
18177;DHT22;9213;50.858;3.964;2023-05-23T11:54:04;23.60;33.30
18177;DHT22;9213;50.858;3.964;2023-05-23T11:56:38;23.60;33.20
18177;DHT22;9213;50.858;3.964;2023-05-23T11:59:05;23.60;33.20
18177;DHT22;9213;50.858;3.964;2023-05-23T12:01:35;23.50;33.40
18177;DHT22;9213;50.858;3.964;2023-05-23T12:04:08;23.40;33.10
18177;DHT22;9213;50.858;3.964;2023-05-23T12:06:37;23.40;33.00
18177;DHT22;9213;50.858;3.964;2023-05-23T12:09:05;23.40;33.00
18177;DHT22;9213;50.858;3.964;2023-05-23T12:11:33;23.40;33.10
18177;DHT22;9213;50.858;3.964;2023-05-23T12:14:00;23.50;33.30
18177;DHT22;9213;50.858;3.964;2023-05-23T12:16:31;23.50;33.60
18177;DHT22;9213;50.858;3.964;2023-05-23T12:18:59;23.60;33.10
18177;DHT22;9213;50.858;3.964;2023-05-23T12:21:39;23.70;31.80
18177;DHT22;9213;50.858;3.964;2023-05-23T12:24:13;23.70;31.90
18177;DHT22;9213;50.858;3.964;2023-05-23T12:26:52;23.70;32.40
18177;DHT22;9213;50.858;3.964;2023-05-23T12:29:20;23.90;32.70
18177;DHT22;9213;50.858;3.964;2023-05-23T12:31:48;23.90;32.40
18177;DHT22;9213;50.858;3.964;2023-05-23T12:34:16;24.00;31.80
18177;DHT22;9213;50.858;3.964;2023-05-23T12:36:43;24.00;31.20
18177;DHT22;9213;50.858;3.964;2023-05-23T12:39:10;23.90;31.10
18177;DHT22;9213;50.858;3.964;2023-05-23T12:41:41;23.90;31.70
18177;DHT22;9213;50.858;3.964;2023-05-23T12:44:10;23.90;31.90
18177;DHT22;9213;50.858;3.964;2023-05-23T12:46:41;24.00;32.00
18177;DHT22;9213;50.858;3.964;2023-05-23T12:49:08;24.00;32.00
18177;DHT22;9213;50.858;3.964;2023-05-23T12:51:35;24.20;31.40
18177;DHT22;9213;50.858;3.964;2023-05-23T12:54:02;24.10;31.30
18177;DHT22;9213;50.858;3.964;2023-05-23T12:56:30;24.10;31.30
18177;DHT22;9213;50.858;3.964;2023-05-23T12:58:57;24.10;31.80
18177;DHT22;9213;50.858;3.964;2023-05-23T13:01:27;24.10;31.00
18177;DHT22;9213;50.858;3.964;2023-05-23T13:03:54;24.30;31.50
18177;DHT22;9213;50.858;3.964;2023-05-23T13:06:21;24.30;31.20
18177;DHT22;9213;50.858;3.964;2023-05-23T13:08:48;24.40;31.40
18177;DHT22;9213;50.858;3.964;2023-05-23T13:11:16;24.40;30.50
18177;DHT22;9213;50.858;3.964;2023-05-23T13:13:43;24.30;30.30
18177;DHT22;9213;50.858;3.964;2023-05-23T13:16:11;24.30;30.70
18177;DHT22;9213;50.858;3.964;2023-05-23T13:18:39;24.20;31.10
18177;DHT22;9213;50.858;3.964;2023-05-23T13:21:06;24.30;31.30
18177;DHT22;9213;50.858;3.964;2023-05-23T13:23:33;24.20;30.60
18177;DHT22;9213;50.858;3.964;2023-05-23T13:26:01;24.20;30.90
18177;DHT22;9213;50.858;3.964;2023-05-23T13:28:28;24.10;30.80
18177;DHT22;9213;50.858;3.964;2023-05-23T13:30:55;24.10;30.70
18177;DHT22;9213;50.858;3.964;2023-05-23T13:33:22;24.10;31.30
18177;DHT22;9213;50.858;3.964;2023-05-23T13:35:50;24.10;31.60
18177;DHT22;9213;50.858;3.964;2023-05-23T13:38:18;24.20;31.80
18177;DHT22;9213;50.858;3.964;2023-05-23T13:40:45;24.20;31.10
18177;DHT22;9213;50.858;3.964;2023-05-23T13:43:12;24.20;30.40
18177;DHT22;9213;50.858;3.964;2023-05-23T13:45:39;24.20;31.10
18177;DHT22;9213;50.858;3.964;2023-05-23T13:48:06;24.10;31.20
18177;DHT22;9213;50.858;3.964;2023-05-23T13:50:33;24.20;31.20
18177;DHT22;9213;50.858;3.964;2023-05-23T13:53:01;24.10;30.80
18177;DHT22;9213;50.858;3.964;2023-05-23T13:55:28;24.20;30.90
18177;DHT22;9213;50.858;3.964;2023-05-23T13:57:56;24.20;31.20
18177;DHT22;9213;50.858;3.964;2023-05-23T14:00:23;24.20;30.90
18177;DHT22;9213;50.858;3.964;2023-05-23T14:02:50;24.20;31.40
18177;DHT22;9213;50.858;3.964;2023-05-23T14:05:16;24.20;31.20
18177;DHT22;9213;50.858;3.964;2023-05-23T14:07:43;24.30;30.50
18177;DHT22;9213;50.858;3.964;2023-05-23T14:10:13;24.30;30.60
18177;DHT22;9213;50.858;3.964;2023-05-23T14:12:41;24.20;30.00
18177;DHT22;9213;50.858;3.964;2023-05-23T14:15:10;24.10;30.40
18177;DHT22;9213;50.858;3.964;2023-05-23T14:17:37;24.00;31.00
18177;DHT22;9213;50.858;3.964;2023-05-23T14:20:05;23.90;30.70
18177;DHT22;9213;50.858;3.964;2023-05-23T14:22:32;23.80;30.60
18177;DHT22;9213;50.858;3.964;2023-05-23T14:24:59;23.70;30.60
18177;DHT22;9213;50.858;3.964;2023-05-23T14:27:27;23.60;30.50
18177;DHT22;9213;50.858;3.964;2023-05-23T14:29:54;23.50;30.10
18177;DHT22;9213;50.858;3.964;2023-05-23T14:32:21;23.40;31.20
18177;DHT22;9213;50.858;3.964;2023-05-23T14:34:48;23.30;31.00
18177;DHT22;9213;50.858;3.964;2023-05-23T14:37:15;23.30;31.90
18177;DHT22;9213;50.858;3.964;2023-05-23T14:39:42;23.30;32.30
18177;DHT22;9213;50.858;3.964;2023-05-23T14:42:09;23.30;31.80
18177;DHT22;9213;50.858;3.964;2023-05-23T14:44:37;23.30;31.90
18177;DHT22;9213;50.858;3.964;2023-05-23T14:47:04;23.20;31.90
18177;DHT22;9213;50.858;3.964;2023-05-23T14:49:31;23.10;32.40
18177;DHT22;9213;50.858;3.964;2023-05-23T14:51:58;23.10;32.50
18177;DHT22;9213;50.858;3.964;2023-05-23T14:54:25;23.10;32.50
18177;DHT22;9213;50.858;3.964;2023-05-23T14:56:52;23.00;32.30
18177;DHT22;9213;50.858;3.964;2023-05-23T14:59:19;23.00;32.20
18177;DHT22;9213;50.858;3.964;2023-05-23T15:01:47;22.90;31.80
18177;DHT22;9213;50.858;3.964;2023-05-23T15:04:14;22.90;31.90
18177;DHT22;9213;50.858;3.964;2023-05-23T15:06:42;22.80;32.00
18177;DHT22;9213;50.858;3.964;2023-05-23T15:09:09;22.80;32.20
18177;DHT22;9213;50.858;3.964;2023-05-23T15:11:36;22.80;32.30
18177;DHT22;9213;50.858;3.964;2023-05-23T15:14:04;22.70;31.90
18177;DHT22;9213;50.858;3.964;2023-05-23T15:16:31;22.70;31.90
18177;DHT22;9213;50.858;3.964;2023-05-23T15:19:00;22.60;32.40
18177;DHT22;9213;50.858;3.964;2023-05-23T15:21:27;22.60;32.50
18177;DHT22;9213;50.858;3.964;2023-05-23T15:23:54;22.50;31.80
18177;DHT22;9213;50.858;3.964;2023-05-23T15:26:22;22.40;31.40
18177;DHT22;9213;50.858;3.964;2023-05-23T15:28:49;22.40;31.60
18177;DHT22;9213;50.858;3.964;2023-05-23T15:31:16;22.40;32.10
18177;DHT22;9213;50.858;3.964;2023-05-23T15:33:43;22.40;32.70
18177;DHT22;9213;50.858;3.964;2023-05-23T15:36:11;22.40;32.40
18177;DHT22;9213;50.858;3.964;2023-05-23T15:38:38;22.50;32.50
18177;DHT22;9213;50.858;3.964;2023-05-23T15:41:05;22.40;32.70
18177;DHT22;9213;50.858;3.964;2023-05-23T15:43:33;22.40;32.60
18177;DHT22;9213;50.858;3.964;2023-05-23T15:46:00;22.40;31.70
18177;DHT22;9213;50.858;3.964;2023-05-23T15:48:27;22.30;32.30
18177;DHT22;9213;50.858;3.964;2023-05-23T15:50:54;22.20;32.60
18177;DHT22;9213;50.858;3.964;2023-05-23T15:53:23;22.10;32.80